Aeroporto :
LOGIN :

Iscrizione | Disclaimer

   EN    FR    IT 

 










Sommario :    VFR   VFR Marginale   IFR   IFR Intensivo   IFR Molto Intensivo
Visibilità : 
Base nubi : 
>= 8 km
>= 3000ft
5 / 8 km
1000 / 3000 ft
1500m / 5 km
500 / 1000 ft
800 / 1500m
200 / 500 ft
< 800m
< 200 ft
Simboli :   Temporali  Nebbia  Neve Forte  Precipitazioni Forti  Vento > 20 kt
SIGMETs :   Varie  Temporali  Ghiacco  Turbolenza  Onda orograficha  Ceneri Vulcaniche






- Altitudine del aeroporto : 297 ft
- Codice IATA : UIP


LFRQ - Quimper Pluguffan

ULTIMO METAR :
  • 231600Z AUTO 32015KT 9999 FEW032 17/10 Q1018 TEMPO 3000 SHRA BKN012 BKN020CB

METARs OBSOLETI :
  • 231530Z AUTO 34012KT 300V010 9999 BKN029/// BKN039/// BKN080/// ///CB 17/11 Q1018 TEMPO 3000 SHRA BKN012 BKN020CB
  • 231500Z AUTO 33013KT 9999 FEW033/// ///CB 18/11 Q1018 TEMPO 3000 SHRA BKN012 BKN020CB
  • 231430Z AUTO 31012KT 9999 FEW035/// ///CB 19/11 Q1018 TEMPO 3000 SHRA BKN012 BKN020CB
  • 231400Z AUTO 31012KT 9999 FEW026 BKN078 18/11 Q1018 TEMPO 1200 TSRA BKN012 BKN020CB
  • 231330Z AUTO 32011KT 9999 ///CB 17/11 Q1018 TEMPO 1200 TSRA BKN012 BKN020CB
  • 231300Z AUTO 31011KT 270V330 9999 FEW035/// ///CB 19/11 Q1018 TEMPO 1200 TSRA BKN012 BKN020CB
  • 231230Z AUTO 31011KT 280V350 CAVOK 18/11 Q1018 TEMPO 1200 TSRA BKN012 BKN020CB
  • 231200Z AUTO 32010KT 280V350 9999 FEW029/// SCT050/// BKN064/// ///CB 18/11 Q1018 TEMPO 1200 TSRA BKN012 BKN020CB
  • 231130Z AUTO 30009KT 270V340 9999 BKN030/// BKN086/// ///CB 18/11 Q1018 TEMPO 1200 TSRA BKN012 BKN020CB

TAF TAF LFRQ
Valido dal 23 a 12 ore il 24 a 12 ore UTC


231100Z 2312/2412 30010KT 9999 SCT030
TEMPO 2312/2318 3000 SHRA BKN012 BKN020CB
PROB40
TEMPO 2312/2316 1200 TSRA
BECMG 2320/2322 VRB05KT
PROB40
TEMPO 2400/2406 3000 BR



MetMap, La meteo Aeronautica in un colpo d'occhio ! - Copyright ORBIFLY Dicembre 2007 - Disclaimer

ORBIFLY MET'MAP TEAM :

Programmazione e sviluppo : Alexandra Zaïnal
Concezione : Baudouin d'Aumeries
Supporto tecnico e logistico : Manuel Goepfert
Aiuto : Marc-Olivier Méhu
Aiuto per la traduzione : Arnaldo La Scala




FONTI E CREDITI :

   NOAA